Time;durP1;ratioP1;P1;durP2;ratioP2;P2;SDS_P1;SDS_P2;PMS_P1;PMS_P2;Temp;Humidity;BMP_temperature;BMP_pressure;BME280_temperature;BME280_humidity;BME280_pressure;Samples;Min_cycle;Max_cycle;Signal;HPM_P1;HPM_P2
2023/07/06 00:01:26;;;;;;;69.27;7.73;;;16.40;99.90;;;;;;5063312;28;20407;-78
2023/07/06 00:03:56;;;;;;;67.57;6.83;;;16.30;99.90;;;;;;5080517;28;20379;-80
2023/07/06 00:06:22;;;;;;;66.57;6.77;;;16.40;99.90;;;;;;5062727;28;20984;-78
2023/07/06 00:08:48;;;;;;;67.03;6.13;;;16.30;99.90;;;;;;5080454;28;20430;-80
2023/07/06 00:11:14;;;;;;;69.03;8.50;;;16.10;99.90;;;;;;5062054;28;20926;-78
2023/07/06 00:13:40;;;;;;;69.10;8.57;;;16.00;99.90;;;;;;5080874;28;20176;-79
2023/07/06 00:16:06;;;;;;;67.33;6.30;;;16.00;99.90;;;;;;5081040;28;20177;-80
2023/07/06 00:18:32;;;;;;;65.77;6.70;;;16.00;99.90;;;;;;5080728;28;20853;-79
2023/07/06 00:20:59;;;;;;;67.47;9.57;;;16.00;99.90;;;;;;5081225;28;20426;-79
2023/07/06 00:23:25;;;;;;;66.97;9.10;;;15.90;99.90;;;;;;5080497;28;20160;-79
2023/07/06 00:25:51;;;;;;;67.83;9.13;;;15.80;99.90;;;;;;5062730;28;20418;-78
2023/07/06 00:28:23;;;;;;;67.40;9.57;;;15.70;99.90;;;;;;5063014;28;20434;-78
2023/07/06 00:33:19;;;;;;;67.43;9.33;;;15.70;99.90;;;;;;5080810;28;20492;-79
2023/07/06 00:35:46;;;;;;;69.37;11.90;;;15.70;99.90;;;;;;5080568;28;20195;-80
2023/07/06 00:38:23;;;;;;;68.80;9.00;;;15.70;99.90;;;;;;5080500;28;20433;-79
2023/07/06 00:41:00;;;;;;;70.07;8.80;;;15.70;99.90;;;;;;5062627;28;20445;-79
2023/07/06 00:43:45;;;;;;;68.77;8.20;;;15.70;99.90;;;;;;5080463;28;20381;-78
2023/07/06 00:46:12;;;;;;;69.37;8.17;;;15.70;99.90;;;;;;5080159;28;20422;-78
2023/07/06 00:48:44;;;;;;;67.63;6.40;;;15.80;99.90;;;;;;5080695;28;20437;-78
2023/07/06 00:51:23;;;;;;;67.87;6.70;;;15.90;99.90;;;;;;5080225;28;20447;-79
2023/07/06 00:53:53;;;;;;;69.00;6.60;;;15.90;99.90;;;;;;5080210;28;20397;-78
2023/07/06 00:56:23;;;;;;;67.70;7.70;;;15.80;99.90;;;;;;5079676;28;20418;-79
2023/07/06 00:58:53;;;;;;;70.10;8.17;;;15.70;99.90;;;;;;5061784;28;20434;-78
2023/07/06 01:01:21;;;;;;;69.67;9.03;;;15.50;99.90;;;;;;5079795;28;20432;-80
2023/07/06 01:03:53;;;;;;;69.80;8.30;;;15.40;99.90;;;;;;5079748;28;20409;-78
2023/07/06 01:06:41;;;;;;;69.07;9.20;;;15.30;99.90;;;;;;5062288;28;20412;-78
2023/07/06 01:09:07;;;;;;;68.90;9.70;;;15.00;99.90;;;;;;5060962;28;20459;-80
2023/07/06 01:11:38;;;;;;;68.20;9.23;;;15.00;99.90;;;;;;5080498;28;20555;-79
2023/07/06 01:14:04;;;;;;;71.57;10.70;;;15.10;99.90;;;;;;5080270;28;20378;-79
2023/07/06 01:16:47;;;;;;;69.27;10.40;;;15.10;99.90;;;;;;5062007;28;20788;-79
2023/07/06 01:19:53;;;;;;;69.90;9.87;;;15.10;99.90;;;;;;5079955;28;20508;-79
2023/07/06 01:22:22;;;;;;;72.30;10.57;;;15.00;99.90;;;;;;5079310;28;20519;-78
2023/07/06 01:25:06;;;;;;;68.67;9.90;;;14.90;99.90;;;;;;5080343;28;20396;-78
2023/07/06 01:28:23;;;;;;;68.37;9.50;;;15.00;99.90;;;;;;5062325;28;20912;-78
2023/07/06 01:31:13;;;;;;;69.23;10.23;;;15.00;99.90;;;;;;5037622;28;20413;-80
2023/07/06 01:34:20;;;;;;;69.23;9.87;;;14.90;99.90;;;;;;5079972;28;20928;-78
2023/07/06 01:36:53;;;;;;;69.63;8.87;;;14.80;99.90;;;;;;5077559;28;20925;-78
2023/07/06 01:39:22;;;;;;;74.90;8.00;;;14.80;99.90;;;;;;5079607;28;20409;-79
2023/07/06 01:42:12;;;;;;;70.30;10.10;;;14.70;99.90;;;;;;5061565;28;20411;-79
2023/07/06 01:44:46;;;;;;;70.20;10.67;;;14.80;99.90;;;;;;5079794;28;20944;-79
2023/07/06 01:47:16;;;;;;;77.07;9.57;;;14.60;99.90;;;;;;5061474;28;20431;-79
2023/07/06 01:49:42;;;;;;;69.30;9.20;;;14.60;99.90;;;;;;5080108;28;20395;-78
2023/07/06 01:52:14;;;;;;;70.27;9.40;;;14.60;99.90;;;;;;5061965;28;20915;-79
2023/07/06 01:54:58;;;;;;;69.83;9.20;;;14.60;99.90;;;;;;5061052;28;20965;-80
2023/07/06 01:57:36;;;;;;;70.03;9.37;;;14.50;99.90;;;;;;5061857;28;20427;-78
2023/07/06 02:00:09;;;;;;;68.30;10.07;;;14.50;99.90;;;;;;5079772;28;20386;-80
2023/07/06 02:02:35;;;;;;;70.93;10.20;;;14.60;99.90;;;;;;5062172;28;20404;-78
2023/07/06 02:05:02;;;;;;;67.87;9.07;;;14.60;99.90;;;;;;5061700;28;20419;-79
2023/07/06 02:07:28;;;;;;;71.80;11.20;;;14.60;99.90;;;;;;5078237;28;20424;-78
2023/07/06 02:09:54;;;;;;;72.13;9.30;;;14.60;99.90;;;;;;5079265;28;20387;-80
2023/07/06 02:12:21;;;;;;;70.13;9.17;;;14.60;99.90;;;;;;5078998;28;20410;-78
2023/07/06 02:14:48;;;;;;;69.90;9.80;;;14.60;99.90;;;;;;5078117;28;20204;-78
2023/07/06 02:17:15;;;;;;;68.70;8.37;;;14.60;99.90;;;;;;5060782;28;20410;-80
2023/07/06 02:19:42;;;;;;;66.97;7.90;;;14.60;99.90;;;;;;5060470;28;20412;-78
2023/07/06 02:22:08;;;;;;;71.87;8.40;;;14.60;99.90;;;;;;5078873;28;20399;-80
2023/07/06 02:24:35;;;;;;;68.40;6.37;;;14.60;99.90;;;;;;5078984;28;20490;-78
2023/07/06 02:27:02;;;;;;;72.70;5.97;;;14.70;99.90;;;;;;5078944;28;20408;-78
2023/07/06 02:29:27;;;;;;;74.60;8.20;;;14.60;99.90;;;;;;5079179;28;20473;-79
2023/07/06 02:31:53;;;;;;;70.13;8.07;;;14.60;99.90;;;;;;5078523;28;20404;-79
2023/07/06 02:34:24;;;;;;;70.83;8.70;;;14.40;99.90;;;;;;5079360;28;20671;-80
2023/07/06 02:37:00;;;;;;;70.60;9.30;;;14.30;99.90;;;;;;5061316;28;20164;-79
2023/07/06 02:39:25;;;;;;;69.50;7.50;;;14.20;99.90;;;;;;5079953;28;20421;-79
2023/07/06 02:41:54;;;;;;;67.97;8.10;;;14.30;99.90;;;;;;5079687;28;20399;-80
2023/07/06 02:44:21;;;;;;;70.27;8.90;;;14.20;99.90;;;;;;5078559;28;20250;-80
2023/07/06 02:46:47;;;;;;;67.87;8.00;;;14.20;99.90;;;;;;5079033;28;20403;-78
2023/07/06 02:49:14;;;;;;;66.50;6.80;;;14.10;99.90;;;;;;5078356;28;20432;-79
2023/07/06 02:51:41;;;;;;;71.13;7.80;;;14.10;99.90;;;;;;5078551;28;20429;-78
2023/07/06 02:54:07;;;;;;;72.43;8.87;;;14.00;99.90;;;;;;5078562;28;20407;-78
2023/07/06 02:56:33;;;;;;;71.63;9.47;;;13.90;99.90;;;;;;5060040;28;20172;-78
2023/07/06 02:58:59;;;;;;;71.50;10.40;;;14.00;99.90;;;;;;5060415;28;20429;-78
2023/07/06 03:01:24;;;;;;;69.37;10.50;;;13.90;99.90;;;;;;5060619;28;20168;-79
2023/07/06 03:03:51;;;;;;;69.70;10.10;;;13.80;99.90;;;;;;5078652;28;20705;-80
2023/07/06 03:06:18;;;;;;;70.40;10.47;;;13.70;99.90;;;;;;5078622;28;20166;-79
2023/07/06 03:09:53;;;;;;;69.10;10.90;;;13.60;99.90;;;;;;5133134;22;20872;-83
2023/07/06 03:12:37;;;;;;;71.43;10.23;;;13.50;99.90;;;;;;5078440;28;20419;-83
2023/07/06 03:16:08;;;;;;;;;;;;;;;;;;;;;
2023/07/06 03:22:37;;;;;;;68.77;10.07;;;13.20;99.90;;;;;;5016121;28;20946;-83
2023/07/06 03:25:21;;;;;;;75.23;11.80;;;13.20;99.90;;;;;;5009019;28;20420;-83
2023/07/06 03:28:41;;;;;;;;;;;;;;;;;;;;;
2023/07/06 03:31:49;;;;;;;68.00;9.90;;;13.10;99.90;;;;;;4979871;28;20498;-83
2023/07/06 03:35:22;;;;;;;70.07;10.80;;;13.10;99.90;;;;;;5013856;28;20432;-83
2023/07/06 03:37:32;;;;;;;71.93;9.00;;;13.00;99.90;;;;;;5016242;22;21206;-83
2023/07/06 03:40:13;;;;;;;68.07;10.60;;;12.90;99.90;;;;;;5077199;28;20397;-83
2023/07/06 03:43:15;;;;;;;68.30;8.90;;;12.90;99.90;;;;;;5077653;28;20785;-83
2023/07/06 03:47:12;;;;;;;;;;;;;;;;;;;;;
2023/07/06 03:53:36;;;;;;;;;;;;;;;;;;;;;
2023/07/06 03:56:28;;;;;;;68.20;9.17;;;13.00;99.90;;;;;;5060551;28;20872;-84
2023/07/06 03:59:18;;;;;;;73.33;10.90;;;13.00;99.90;;;;;;5048802;28;20846;-83
2023/07/06 04:02:06;;;;;;;69.37;9.13;;;13.00;99.90;;;;;;5060426;28;20486;-83
2023/07/06 04:05:06;;;;;;;67.77;8.47;;;13.00;99.90;;;;;;5059434;28;20802;-83
2023/07/06 04:11:40;;;;;;;70.47;9.93;;;13.10;99.90;;;;;;4998729;28;20444;-83
2023/07/06 04:17:52;;;;;;;69.27;9.03;;;13.20;99.90;;;;;;5017222;28;20522;-83
2023/07/06 04:24:19;;;;;;;69.77;9.70;;;13.30;99.90;;;;;;5015060;28;20496;-83
2023/07/06 04:30:33;;;;;;;;;;;;;;;;;;;;;
2023/07/06 04:34:03;;;;;;;68.60;10.57;;;13.40;99.90;;;;;;5079864;28;20505;-83
2023/07/06 04:54:14;;;;;;;;;;;;;;;;;;;;;
2023/07/06 04:57:27;;;;;;;;;;;;;;;;;;;;;
2023/07/06 05:00:24;;;;;;;69.37;3.73;;;17.10;94.00;;;;;;4960890;29;20505;-84
2023/07/06 05:08:43;;;;;;;68.10;4.30;;;18.10;49.00;;;;;;5180594;22;20477;-83
2023/07/06 05:14:46;;;;;;;66.90;3.83;;;18.30;30.60;;;;;;5080765;28;20429;-84
2023/07/06 05:20:31;;;;;;;68.27;4.53;;;17.80;37.20;;;;;;5047930;28;20472;-83
2023/07/06 05:27:49;;;;;;;69.07;6.30;;;17.40;43.40;;;;;;5048563;28;20403;-83
2023/07/06 05:30:07;;;;;;;71.20;6.27;;;17.20;50.30;;;;;;5068233;28;20403;-84
2023/07/06 05:32:57;;;;;;;70.80;6.20;;;17.20;49.70;;;;;;5079425;28;20382;-83
2023/07/06 05:36:16;;;;;;;67.97;6.03;;;17.20;51.20;;;;;;5078586;28;21026;-83
2023/07/06 05:38:52;;;;;;;70.47;6.80;;;17.10;43.70;;;;;;4963189;28;20431;-84
2023/07/06 05:41:21;;;;;;;77.60;6.60;;;17.00;44.80;;;;;;5080151;28;20378;-84
2023/07/06 05:43:52;;;;;;;69.80;6.33;;;16.90;45.20;;;;;;5079386;28;20785;-83
2023/07/06 05:49:01;;;;;;;69.37;5.90;;;16.70;46.00;;;;;;5707484;22;20486;-81
2023/07/06 05:51:27;;;;;;;68.13;6.07;;;16.70;44.00;;;;;;5160495;22;20868;-81
2023/07/06 05:53:52;;;;;;;74.17;5.60;;;16.60;48.90;;;;;;5061084;28;20168;-81
2023/07/06 05:56:19;;;;;;;69.70;6.43;;;16.60;45.00;;;;;;5078383;28;20193;-82
2023/07/06 05:58:45;;;;;;;67.93;6.57;;;16.60;45.20;;;;;;5078866;28;20176;-82
2023/07/06 06:01:11;;;;;;;66.80;5.57;;;16.60;49.40;;;;;;5079914;28;20421;-81
2023/07/06 06:03:37;;;;;;;67.70;5.20;;;16.60;44.10;;;;;;5078814;28;20163;-81
2023/07/06 06:06:03;;;;;;;67.00;5.20;;;16.60;43.00;;;;;;5078791;28;20410;-82
2023/07/06 06:08:29;;;;;;;68.13;5.67;;;16.60;36.60;;;;;;5079352;28;20513;-81
2023/07/06 06:10:55;;;;;;;67.40;4.90;;;16.70;40.50;;;;;;5080691;28;20159;-82
2023/07/06 06:13:21;;;;;;;71.90;3.60;;;16.50;39.40;;;;;;5079054;28;20470;-81
2023/07/06 06:15:47;;;;;;;65.30;3.80;;;16.50;29.50;;;;;;5078765;28;20434;-81
2023/07/06 06:18:13;;;;;;;70.80;5.30;;;16.50;29.90;;;;;;5079085;28;20446;-81
2023/07/06 06:20:41;;;;;;;66.43;4.00;;;16.50;38.40;;;;;;5079648;28;20397;-81
2023/07/06 06:23:10;;;;;;;68.20;4.63;;;16.60;22.60;;;;;;5079028;28;20386;-81
2023/07/06 06:25:38;;;;;;;68.70;4.37;;;16.50;28.80;;;;;;5080015;28;20773;-82
2023/07/06 06:28:04;;;;;;;69.73;4.13;;;16.50;23.90;;;;;;5078952;28;20433;-81
2023/07/06 06:30:30;;;;;;;72.90;4.37;;;16.60;24.60;;;;;;5077974;28;20746;-82
2023/07/06 06:32:57;;;;;;;66.13;3.40;;;16.60;25.00;;;;;;5061327;28;20773;-82
2023/07/06 06:35:28;;;;;;;68.57;4.30;;;16.70;17.20;;;;;;5079143;28;20445;-82
2023/07/06 06:37:54;;;;;;;71.50;4.07;;;16.60;22.60;;;;;;5062106;28;20441;-82
2023/07/06 06:40:21;;;;;;;68.60;4.07;;;16.60;25.80;;;;;;5080147;28;20387;-83
2023/07/06 06:42:50;;;;;;;68.30;4.20;;;16.70;22.80;;;;;;5078435;28;20885;-83
2023/07/06 06:45:18;;;;;;;68.17;3.80;;;16.70;22.10;;;;;;5059642;28;20935;-83
2023/07/06 06:47:44;;;;;;;75.30;4.60;;;16.70;17.80;;;;;;5078112;28;20421;-83
2023/07/06 06:50:13;;;;;;;72.50;4.27;;;16.70;27.20;;;;;;5060439;28;20410;-83
2023/07/06 06:52:40;;;;;;;70.80;4.17;;;16.80;16.40;;;;;;5059798;28;20786;-83
2023/07/06 06:55:06;;;;;;;67.50;3.33;;;16.80;22.70;;;;;;5077915;28;20870;-83
2023/07/06 06:57:33;;;;;;;70.00;3.90;;;16.80;17.30;;;;;;5078009;28;20414;-83
2023/07/06 06:59:59;;;;;;;68.37;3.40;;;16.90;11.60;;;;;;5077717;28;20790;-83
2023/07/06 07:02:25;;;;;;;65.77;3.17;;;16.90;9.10;;;;;;5077557;28;20416;-83
2023/07/06 07:04:52;;;;;;;66.63;3.70;;;16.80;15.60;;;;;;5077778;28;20427;-83
2023/07/06 07:07:18;;;;;;;65.10;3.00;;;16.90;10.40;;;;;;5077856;28;20398;-83
2023/07/06 07:09:46;;;;;;;66.23;3.40;;;17.00;9.60;;;;;;5077895;28;20804;-83
2023/07/06 07:12:12;;;;;;;67.50;4.07;;;17.00;10.10;;;;;;5076376;28;20438;-83
2023/07/06 07:14:38;;;;;;;69.03;3.90;;;17.00;18.20;;;;;;5076549;28;20472;-82
2023/07/06 07:17:07;;;;;;;67.70;3.40;;;17.00;17.90;;;;;;5076930;28;20161;-83
2023/07/06 07:19:34;;;;;;;70.10;3.10;;;17.10;7.70;;;;;;5080748;28;20229;-83
2023/07/06 07:22:00;;;;;;;64.90;3.27;;;17.10;11.10;;;;;;5080815;28;20893;-82
2023/07/06 07:24:29;;;;;;;68.50;3.20;;;17.10;11.20;;;;;;5080820;28;20398;-83
2023/07/06 07:26:57;;;;;;;67.27;3.57;;;17.20;10.90;;;;;;5080769;28;20398;-83
2023/07/06 07:29:23;;;;;;;65.30;3.40;;;17.20;6.20;;;;;;5062811;28;20426;-83
2023/07/06 07:31:50;;;;;;;65.17;2.83;;;17.20;14.00;;;;;;5080211;28;20916;-82
2023/07/06 07:34:17;;;;;;;64.60;3.10;;;17.30;5.00;;;;;;5080148;28;20402;-83
2023/07/06 07:36:43;;;;;;;69.20;3.50;;;17.40;2.10;;;;;;5080312;28;20414;-83
2023/07/06 07:39:27;;;;;;;65.23;2.67;;;17.40;1.00;;;;;;5079244;22;20484;-83
2023/07/06 07:41:53;;;;;;;65.10;3.07;;;17.40;6.10;;;;;;5080496;28;20441;-83
2023/07/06 07:44:23;;;;;;;65.80;2.90;;;17.50;8.50;;;;;;5080628;28;20881;-82
2023/07/06 07:46:55;;;;;;;65.10;2.80;;;17.50;4.90;;;;;;5080476;28;20192;-83
2023/07/06 07:49:21;;;;;;;66.60;3.43;;;17.50;1.00;;;;;;5062409;28;20425;-83
2023/07/06 07:52:05;;;;;;;66.03;3.70;;;17.60;1.00;;;;;;5079812;28;20402;-83
2023/07/06 07:54:36;;;;;;;67.60;3.47;;;17.70;1.00;;;;;;5080016;28;20391;-82
2023/07/06 07:57:22;;;;;;;64.40;3.07;;;17.70;1.00;;;;;;5080659;28;20415;-83
2023/07/06 08:00:11;;;;;;;67.87;3.10;;;17.70;1.00;;;;;;5078681;28;20438;-83
2023/07/06 08:02:53;;;;;;;67.87;3.33;;;17.70;1.00;;;;;;5080873;28;20962;-83
2023/07/06 08:05:21;;;;;;;69.10;3.00;;;17.70;1.00;;;;;;5081208;28;20770;-83
2023/07/06 08:12:51;;;;;;;65.67;3.63;;;18.00;1.00;;;;;;5038603;28;20467;-83
2023/07/06 08:15:17;;;;;;;73.00;4.00;;;18.00;1.00;;;;;;5040159;28;20455;-83
2023/07/06 08:17:46;;;;;;;65.70;3.50;;;18.00;1.00;;;;;;5040201;28;20424;-83
2023/07/06 08:20:14;;;;;;;65.20;3.00;;;18.10;1.00;;;;;;5040051;28;20169;-83
2023/07/06 08:22:40;;;;;;;66.37;3.60;;;18.20;1.00;;;;;;5040005;28;20400;-83
2023/07/06 08:25:28;;;;;;;65.10;3.20;;;18.30;1.00;;;;;;5040345;28;20745;-83
2023/07/06 08:28:04;;;;;;;64.20;3.07;;;18.30;1.00;;;;;;5040816;28;20208;-83
2023/07/06 08:30:40;;;;;;;64.60;3.07;;;18.30;1.00;;;;;;5040212;28;20419;-83
2023/07/06 08:33:09;;;;;;;66.90;3.27;;;18.40;1.00;;;;;;5040586;28;20396;-83
2023/07/06 08:35:53;;;;;;;67.50;3.30;;;18.40;1.00;;;;;;5040150;28;20443;-83
2023/07/06 08:38:19;;;;;;;64.90;3.07;;;18.50;1.00;;;;;;5017691;28;20954;-83
2023/07/06 08:41:29;;;;;;;67.43;3.13;;;18.50;1.00;;;;;;5039190;28;20404;-83
2023/07/06 08:43:59;;;;;;;66.67;3.37;;;18.60;1.00;;;;;;5039560;28;20393;-83
2023/07/06 08:46:30;;;;;;;65.67;3.20;;;18.60;1.00;;;;;;5039675;28;20404;-82
2023/07/06 08:48:56;;;;;;;68.20;3.63;;;18.60;1.00;;;;;;5039445;28;20462;-83
2023/07/06 08:51:34;;;;;;;66.50;3.57;;;18.70;1.00;;;;;;5038933;28;20404;-83
2023/07/06 08:54:10;;;;;;;67.00;3.97;;;18.80;1.00;;;;;;5039635;28;20153;-83
2023/07/06 08:56:39;;;;;;;68.20;4.73;;;19.00;1.00;;;;;;5039402;28;20511;-83
2023/07/06 08:59:14;;;;;;;69.80;3.83;;;19.20;1.00;;;;;;5039075;28;20502;-82
2023/07/06 09:01:41;;;;;;;65.00;4.10;;;19.30;1.00;;;;;;5038504;28;20408;-82
2023/07/06 09:04:16;;;;;;;66.10;5.03;;;19.30;1.00;;;;;;5038842;28;20451;-83
2023/07/06 09:06:50;;;;;;;66.47;4.20;;;19.40;1.00;;;;;;5020722;28;20484;-82
2023/07/06 09:09:16;;;;;;;66.87;4.00;;;19.50;1.00;;;;;;5246419;22;20481;-80
2023/07/06 09:11:44;;;;;;;66.93;3.80;;;19.60;1.00;;;;;;5081991;28;20440;-80
2023/07/06 09:14:13;;;;;;;66.87;4.90;;;19.60;1.00;;;;;;5061625;28;20402;-80
2023/07/06 09:16:55;;;;;;;67.37;3.67;;;19.70;1.00;;;;;;5062808;28;20446;-80
2023/07/06 09:19:22;;;;;;;72.20;3.90;;;19.90;1.00;;;;;;5080544;28;20471;-80
2023/07/06 09:21:54;;;;;;;66.67;2.50;;;20.10;1.00;;;;;;5080227;28;20424;-80
2023/07/06 09:24:26;;;;;;;65.47;2.57;;;20.20;1.00;;;;;;5081327;28;20438;-80
2023/07/06 09:26:53;;;;;;;64.80;1.93;;;20.40;1.00;;;;;;5061608;28;20422;-80
2023/07/06 09:29:28;;;;;;;66.70;2.50;;;20.50;1.00;;;;;;5061549;28;20436;-80
2023/07/06 09:32:12;;;;;;;66.07;2.10;;;20.60;1.00;;;;;;5079388;28;20473;-80
2023/07/06 09:34:41;;;;;;;65.80;2.40;;;20.80;1.00;;;;;;5079863;28;20399;-81
2023/07/06 09:37:17;;;;;;;66.60;2.43;;;20.90;1.00;;;;;;5079325;28;20764;-80
2023/07/06 09:40:03;;;;;;;67.07;2.60;;;21.10;1.00;;;;;;5079435;28;20385;-80
2023/07/06 09:42:31;;;;;;;67.50;2.47;;;21.30;1.00;;;;;;5060680;28;20452;-80
2023/07/06 09:44:57;;;;;;;65.50;2.03;;;21.40;1.00;;;;;;5078643;28;20400;-80
2023/07/06 09:47:23;;;;;;;65.77;2.40;;;21.50;1.00;;;;;;5079410;28;20465;-80
2023/07/06 09:49:59;;;;;;;67.13;2.83;;;21.70;1.00;;;;;;5079911;28;20419;-80
2023/07/06 09:52:28;;;;;;;66.00;2.20;;;21.80;1.00;;;;;;5078621;28;20401;-80
2023/07/06 09:55:08;;;;;;;65.97;2.30;;;21.90;1.00;;;;;;5079084;28;20534;-80
2023/07/06 09:57:35;;;;;;;66.53;2.40;;;21.90;1.00;;;;;;5061922;28;20426;-81
2023/07/06 10:00:03;;;;;;;67.27;2.70;;;21.90;1.00;;;;;;5078313;28;20399;-80
2023/07/06 10:02:54;;;;;;;69.30;2.30;;;22.00;1.00;;;;;;5061496;28;20403;-80
2023/07/06 10:05:44;;;;;;;67.30;2.20;;;22.10;1.00;;;;;;5078037;28;20394;-80
2023/07/06 10:08:16;;;;;;;66.10;2.23;;;22.30;1.00;;;;;;5078332;28;20420;-80
2023/07/06 10:10:43;;;;;;;66.40;2.00;;;22.50;1.00;;;;;;5079923;28;20379;-80
2023/07/06 10:13:37;;;;;;;68.20;2.40;;;22.50;1.00;;;;;;5061761;28;20409;-80
2023/07/06 10:16:34;;;;;;;66.90;2.30;;;22.70;1.00;;;;;;5078054;28;20458;-80
2023/07/06 10:19:25;;;;;;;65.77;1.87;;;22.90;1.00;;;;;;5076599;28;20462;-80
2023/07/06 10:22:33;;;;;;;65.80;2.03;;;23.30;1.00;;;;;;5062051;28;20970;-80
2023/07/06 10:25:22;;;;;;;68.00;2.30;;;23.50;1.00;;;;;;5078367;28;20440;-80
2023/07/06 10:28:03;;;;;;;67.20;2.70;;;23.80;1.00;;;;;;5077749;28;20504;-80
2023/07/06 10:30:40;;;;;;;66.93;2.80;;;24.00;1.00;;;;;;5078354;28;20385;-80
2023/07/06 10:33:12;;;;;;;66.47;2.67;;;24.00;1.00;;;;;;5061005;28;20395;-80
2023/07/06 10:35:45;;;;;;;68.10;2.63;;;24.10;1.00;;;;;;5078379;28;20422;-81
2023/07/06 10:38:11;;;;;;;68.00;4.43;;;24.20;1.00;;;;;;5059516;28;20521;-80
2023/07/06 10:40:38;;;;;;;67.80;3.10;;;24.20;1.00;;;;;;5078256;28;20406;-80
2023/07/06 10:43:20;;;;;;;66.60;2.53;;;24.00;1.00;;;;;;5077494;28;20445;-80
2023/07/06 10:45:51;;;;;;;68.50;3.10;;;23.90;1.00;;;;;;5077155;28;20386;-80
2023/07/06 10:48:34;;;;;;;66.77;2.70;;;24.00;1.00;;;;;;5077334;28;20422;-80
2023/07/06 10:51:22;;;;;;;67.17;3.67;;;24.30;1.00;;;;;;5078153;28;20403;-80
2023/07/06 10:54:06;;;;;;;66.87;3.60;;;24.50;1.00;;;;;;5080308;28;20468;-80
2023/07/06 10:56:39;;;;;;;67.17;3.57;;;24.40;1.00;;;;;;5081846;28;20427;-80
2023/07/06 10:59:18;;;;;;;68.20;3.90;;;24.20;1.00;;;;;;5081913;28;20432;-80
2023/07/06 11:01:45;;;;;;;67.07;3.60;;;24.20;1.00;;;;;;5081698;28;20414;-80
2023/07/06 11:04:41;;;;;;;68.10;4.40;;;24.40;1.00;;;;;;5065010;28;20997;-80
2023/07/06 11:07:09;;;;;;;67.50;4.27;;;24.20;1.00;;;;;;5081820;28;20743;-80
2023/07/06 11:10:12;;;;;;;67.80;3.50;;;24.00;1.00;;;;;;5081525;28;20410;-80
2023/07/06 11:12:56;;;;;;;67.50;4.40;;;23.90;1.00;;;;;;5082556;28;20790;-81
2023/07/06 11:15:30;;;;;;;68.17;4.97;;;24.10;1.00;;;;;;5081141;28;20426;-80
2023/07/06 11:17:57;;;;;;;67.97;5.37;;;24.10;1.00;;;;;;5080819;28;20418;-80
2023/07/06 11:20:26;;;;;;;67.27;4.60;;;24.30;1.00;;;;;;5081764;28;20401;-80
2023/07/06 11:23:04;;;;;;;67.57;4.07;;;24.20;1.00;;;;;;5081236;28;20398;-79
2023/07/06 11:25:31;;;;;;;67.37;4.20;;;24.10;1.00;;;;;;5082691;28;20382;-79
2023/07/06 11:28:06;;;;;;;67.80;4.90;;;24.30;1.00;;;;;;5080297;28;20437;-80
2023/07/06 11:30:51;;;;;;;70.37;4.10;;;24.20;1.00;;;;;;5085272;28;20397;-80
2023/07/06 11:33:41;;;;;;;66.50;3.23;;;23.80;1.00;;;;;;5080810;28;20382;-79
2023/07/06 11:36:21;;;;;;;67.23;4.37;;;23.90;1.00;;;;;;5083804;28;20499;-80
2023/07/06 11:39:18;;;;;;;67.33;4.30;;;24.70;1.00;;;;;;5080254;28;20781;-80
2023/07/06 11:41:59;;;;;;;68.47;4.53;;;25.30;1.00;;;;;;5081168;28;20470;-80
2023/07/06 11:44:48;;;;;;;67.30;4.50;;;25.80;1.00;;;;;;5080170;28;20384;-80
2023/07/06 11:47:43;;;;;;;68.63;5.07;;;26.10;1.00;;;;;;5063314;28;20399;-80
2023/07/06 11:50:18;;;;;;;68.37;5.83;;;26.10;1.00;;;;;;5080785;28;20435;-80
2023/07/06 11:53:09;;;;;;;67.97;5.23;;;26.20;1.00;;;;;;5080745;28;20938;-80
2023/07/06 11:56:05;;;;;;;69.17;5.97;;;26.10;1.00;;;;;;5080028;28;20483;-80
2023/07/06 11:58:43;;;;;;;68.57;5.47;;;26.50;1.00;;;;;;5082439;28;20430;-80
2023/07/06 12:01:21;;;;;;;68.87;6.93;;;26.90;1.00;;;;;;5081123;28;20381;-80
2023/07/06 12:03:57;;;;;;;68.47;6.63;;;27.30;1.00;;;;;;5062358;28;20406;-80
2023/07/06 12:06:22;;;;;;;67.57;4.87;;;26.90;1.00;;;;;;5080159;28;20406;-80
2023/07/06 12:08:48;;;;;;;68.20;4.30;;;27.10;1.00;;;;;;5081467;28;20449;-80
2023/07/06 12:11:24;;;;;;;68.20;5.43;;;26.90;1.00;;;;;;5080812;28;20179;-80
2023/07/06 12:13:55;;;;;;;70.00;7.17;;;26.90;1.00;;;;;;5079311;28;20231;-79
2023/07/06 12:16:27;;;;;;;68.60;4.00;;;27.30;1.00;;;;;;5080975;28;20774;-80
2023/07/06 12:19:08;;;;;;;71.27;5.33;;;27.50;1.00;;;;;;5063456;28;20434;-80
2023/07/06 12:21:39;;;;;;;69.43;5.10;;;27.50;1.00;;;;;;5081468;28;20382;-80
2023/07/06 12:24:10;;;;;;;67.50;3.77;;;27.80;1.00;;;;;;5080865;28;20392;-80
2023/07/06 12:26:45;;;;;;;68.10;5.10;;;28.00;1.00;;;;;;5080109;28;20410;-80
2023/07/06 12:29:14;;;;;;;70.40;4.20;;;27.70;1.00;;;;;;5081364;28;20437;-80
2023/07/06 12:31:40;;;;;;;68.47;4.23;;;27.50;1.00;;;;;;5079015;28;20406;-80
2023/07/06 12:34:06;;;;;;;68.20;3.93;;;27.20;1.00;;;;;;5063980;28;20493;-80
2023/07/06 12:36:35;;;;;;;72.40;3.50;;;26.70;1.00;;;;;;5079837;28;20472;-80
2023/07/06 12:39:04;;;;;;;67.50;3.87;;;26.30;1.00;;;;;;5080603;28;20476;-80
2023/07/06 12:41:35;;;;;;;68.37;3.60;;;26.20;1.00;;;;;;5082397;28;20406;-79
2023/07/06 12:44:06;;;;;;;69.67;3.70;;;26.40;1.00;;;;;;5079959;28;20815;-79
2023/07/06 12:46:33;;;;;;;70.33;3.90;;;26.60;1.00;;;;;;5081012;28;20731;-80
2023/07/06 12:49:05;;;;;;;67.53;3.60;;;26.90;1.00;;;;;;5080292;28;20423;-79
2023/07/06 12:51:32;;;;;;;67.80;3.73;;;27.00;1.00;;;;;;5079036;28;20490;-80
2023/07/06 12:53:58;;;;;;;68.30;3.20;;;27.10;1.00;;;;;;5080329;28;20467;-79
2023/07/06 12:56:31;;;;;;;67.57;3.83;;;27.00;1.00;;;;;;5080085;28;20462;-79
2023/07/06 12:59:03;;;;;;;71.07;3.80;;;27.00;1.00;;;;;;5062342;28;20434;-80
2023/07/06 13:01:37;;;;;;;67.90;3.60;;;26.90;1.00;;;;;;5080209;28;20406;-79
2023/07/06 13:04:10;;;;;;;68.83;3.20;;;27.20;1.00;;;;;;5081563;28;20484;-80
2023/07/06 13:06:52;;;;;;;68.67;3.60;;;27.00;1.00;;;;;;5062942;28;20406;-79
2023/07/06 13:09:21;;;;;;;67.90;3.50;;;26.80;1.00;;;;;;5080568;28;20461;-78
2023/07/06 13:11:55;;;;;;;69.67;3.40;;;26.60;1.00;;;;;;5083383;28;20407;-79
2023/07/06 13:14:22;;;;;;;70.47;3.10;;;26.70;1.00;;;;;;5066250;28;20771;-79
2023/07/06 13:16:55;;;;;;;70.20;3.60;;;26.60;1.00;;;;;;5084684;28;20441;-79
2023/07/06 13:19:23;;;;;;;69.27;4.27;;;26.70;1.00;;;;;;5081561;28;20454;-79
2023/07/06 13:21:52;;;;;;;74.20;3.70;;;26.70;1.00;;;;;;5063980;28;20478;-79
2023/07/06 13:24:23;;;;;;;71.37;3.57;;;26.50;1.00;;;;;;5082456;28;20391;-79
2023/07/06 13:26:53;;;;;;;68.37;3.40;;;26.70;1.00;;;;;;5080796;28;20418;-79
2023/07/06 13:29:19;;;;;;;69.30;3.73;;;26.70;1.00;;;;;;5063068;28;20508;-79
2023/07/06 13:31:48;;;;;;;71.87;3.60;;;26.80;1.00;;;;;;5062587;28;20792;-80
2023/07/06 13:34:15;;;;;;;68.10;3.83;;;27.10;1.00;;;;;;5063381;28;20441;-80
2023/07/06 13:36:41;;;;;;;69.90;4.23;;;27.30;1.00;;;;;;5079749;28;20483;-79
2023/07/06 13:39:07;;;;;;;67.37;3.47;;;27.20;1.00;;;;;;5081374;28;20944;-79
2023/07/06 13:41:36;;;;;;;69.90;3.87;;;26.90;1.00;;;;;;5079994;28;20391;-79
2023/07/06 13:44:03;;;;;;;67.90;3.40;;;26.80;1.00;;;;;;5079737;28;20483;-79
2023/07/06 13:46:31;;;;;;;68.70;3.93;;;26.80;1.00;;;;;;5079050;28;20486;-79
2023/07/06 13:48:57;;;;;;;68.30;3.30;;;26.70;1.00;;;;;;5080310;28;20419;-80
2023/07/06 13:51:23;;;;;;;68.60;3.53;;;26.50;1.00;;;;;;5079971;28;20399;-79
2023/07/06 13:53:50;;;;;;;67.77;3.17;;;26.20;1.00;;;;;;5079523;28;20410;-79
2023/07/06 13:56:17;;;;;;;67.57;3.20;;;25.90;1.00;;;;;;5079944;28;20437;-79
2023/07/06 13:58:44;;;;;;;71.93;3.60;;;26.00;1.00;;;;;;5080149;28;20429;-80
2023/07/06 14:01:16;;;;;;;68.30;3.37;;;26.20;1.00;;;;;;5082889;28;20872;-79
2023/07/06 14:03:43;;;;;;;68.90;2.97;;;26.30;1.00;;;;;;5084043;28;20394;-79
2023/07/06 14:06:12;;;;;;;68.17;3.47;;;26.40;1.00;;;;;;5081607;28;20493;-79
2023/07/06 14:08:40;;;;;;;69.57;3.37;;;26.70;1.00;;;;;;5083024;28;20491;-79
2023/07/06 14:11:06;;;;;;;67.37;3.30;;;26.70;1.00;;;;;;5079892;28;20410;-80
2023/07/06 14:13:32;;;;;;;67.93;3.60;;;26.90;1.00;;;;;;5079364;28;20889;-79
2023/07/06 14:15:58;;;;;;;67.40;2.90;;;27.00;1.00;;;;;;5080904;28;20438;-80
2023/07/06 14:18:26;;;;;;;69.73;3.30;;;26.80;1.00;;;;;;5080620;28;20426;-80
2023/07/06 14:21:01;;;;;;;67.77;3.33;;;26.70;1.00;;;;;;5061211;28;20404;-79
2023/07/06 14:23:27;;;;;;;71.10;3.30;;;26.40;1.00;;;;;;5080679;28;20387;-79
2023/07/06 14:25:54;;;;;;;67.27;2.70;;;26.20;1.00;;;;;;5080482;28;20452;-80
2023/07/06 14:28:22;;;;;;;67.17;2.87;;;25.90;1.00;;;;;;5081982;28;20424;-79
2023/07/06 14:30:50;;;;;;;68.10;3.17;;;25.90;1.00;;;;;;5079974;28;20485;-81
2023/07/06 14:33:18;;;;;;;69.97;3.80;;;26.00;1.00;;;;;;5062655;28;20439;-80
2023/07/06 14:35:44;;;;;;;67.80;3.20;;;26.50;1.00;;;;;;5081518;28;20438;-79